Time;durP1;ratioP1;P1;durP2;ratioP2;P2;SDS_P1;SDS_P2;PMS_P1;PMS_P2;Temp;Humidity;BMP_temperature;BMP_pressure;BME280_temperature;BME280_humidity;BME280_pressure;Samples;Min_cycle;Max_cycle;Signal;HPM_P1;HPM_P2
2022/03/19 00:01:39;;;;;;;;;7.25;7.00;;;;;;;;5062218;27;51812;-61
2022/03/19 00:04:04;;;;;;;;;7.50;7.50;;;;;;;;5067894;27;51126;-62
2022/03/19 00:06:31;;;;;;;;;8.25;8.25;;;;;;;;5064654;27;51148;-61
2022/03/19 00:08:56;;;;;;;;;6.00;6.00;;;;;;;;5062099;28;51080;-61
2022/03/19 00:11:23;;;;;;;;;5.00;5.00;;;;;;;;5063534;27;51700;-62
2022/03/19 00:13:49;;;;;;;;;5.00;4.00;;;;;;;;5066165;27;51403;-62
2022/03/19 00:16:14;;;;;;;;;4.50;4.25;;;;;;;;5057541;27;51239;-62
2022/03/19 00:18:39;;;;;;;;;5.00;5.00;;;;;;;;5065561;27;51348;-63
2022/03/19 00:21:05;;;;;;;;;3.00;2.25;;;;;;;;5064638;28;52002;-62
2022/03/19 00:23:31;;;;;;;;;6.00;6.00;;;;;;;;5064594;27;51046;-62
2022/03/19 00:25:56;;;;;;;;;9.25;9.00;;;;;;;;5066343;27;51273;-62
2022/03/19 00:28:21;;;;;;;;;7.25;7.25;;;;;;;;5062000;28;51174;-62
2022/03/19 00:30:47;;;;;;;;;7.00;7.00;;;;;;;;5064524;28;52093;-62
2022/03/19 00:33:13;;;;;;;;;7.25;5.50;;;;;;;;5064641;27;51181;-64
2022/03/19 00:35:38;;;;;;;;;4.75;3.00;;;;;;;;5061310;28;51278;-61
2022/03/19 00:38:04;;;;;;;;;4.25;4.25;;;;;;;;5064052;27;51326;-62
2022/03/19 00:40:29;;;;;;;;;4.75;4.25;;;;;;;;5059157;27;52204;-62
2022/03/19 00:42:55;;;;;;;;;5.25;4.75;;;;;;;;5059543;28;51182;-62
2022/03/19 00:45:20;;;;;;;;;6.00;5.50;;;;;;;;5061101;27;51322;-61
2022/03/19 00:47:45;;;;;;;;;5.50;4.00;;;;;;;;5064610;28;51302;-64
2022/03/19 00:50:11;;;;;;;;;5.00;4.00;;;;;;;;5057642;27;51955;-63
2022/03/19 00:52:36;;;;;;;;;7.75;6.50;;;;;;;;5059763;27;51084;-61
2022/03/19 00:55:02;;;;;;;;;4.00;4.00;;;;;;;;5062563;27;52222;-62
2022/03/19 00:57:27;;;;;;;;;5.00;4.00;;;;;;;;5058762;27;51222;-64
2022/03/19 00:59:53;;;;;;;;;5.75;4.00;;;;;;;;5057915;27;51903;-61
2022/03/19 01:02:18;;;;;;;;;4.75;3.75;;;;;;;;5058925;28;51129;-62
2022/03/19 01:04:43;;;;;;;;;4.25;4.25;;;;;;;;5060243;27;51475;-61
2022/03/19 01:07:08;;;;;;;;;4.75;4.25;;;;;;;;5063348;28;51138;-61
2022/03/19 01:09:34;;;;;;;;;5.25;4.00;;;;;;;;5059550;27;51274;-61
2022/03/19 01:11:59;;;;;;;;;4.00;4.00;;;;;;;;5060227;27;51127;-62
2022/03/19 01:14:24;;;;;;;;;5.00;5.00;;;;;;;;5061986;27;51150;-62
2022/03/19 01:16:49;;;;;;;;;4.00;4.00;;;;;;;;5060720;28;51194;-62
2022/03/19 01:19:15;;;;;;;;;4.00;3.75;;;;;;;;5061359;28;51866;-62
2022/03/19 01:21:40;;;;;;;;;3.50;3.00;;;;;;;;5059274;27;51117;-62
2022/03/19 01:24:06;;;;;;;;;3.00;3.00;;;;;;;;5067374;27;51112;-63
2022/03/19 01:26:31;;;;;;;;;5.25;4.25;;;;;;;;5062089;27;51221;-61
2022/03/19 01:28:57;;;;;;;;;5.25;4.00;;;;;;;;5060018;27;52485;-61
2022/03/19 01:31:25;;;;;;;;;4.00;4.00;;;;;;;;5061911;27;51188;-61
2022/03/19 01:33:51;;;;;;;;;5.25;4.00;;;;;;;;5061957;27;52240;-62
2022/03/19 01:36:17;;;;;;;;;3.00;3.00;;;;;;;;5065972;27;51026;-62
2022/03/19 01:38:42;;;;;;;;;4.00;3.00;;;;;;;;5059316;27;52247;-63
2022/03/19 01:41:08;;;;;;;;;4.00;3.25;;;;;;;;5062254;27;52233;-62
2022/03/19 01:43:35;;;;;;;;;3.00;3.00;;;;;;;;5058086;27;51394;-62
2022/03/19 01:46:01;;;;;;;;;5.25;4.00;;;;;;;;5059945;28;52179;-62
2022/03/19 01:48:26;;;;;;;;;3.00;3.00;;;;;;;;5061394;27;51154;-62
2022/03/19 01:50:51;;;;;;;;;4.00;4.00;;;;;;;;5060282;28;51246;-61
2022/03/19 01:53:16;;;;;;;;;5.00;3.75;;;;;;;;5061728;28;52148;-62
2022/03/19 01:55:42;;;;;;;;;3.00;3.00;;;;;;;;5056858;27;52154;-61
2022/03/19 01:58:07;;;;;;;;;4.00;4.00;;;;;;;;5063514;27;51265;-63
2022/03/19 02:00:33;;;;;;;;;3.75;3.75;;;;;;;;5062054;28;51187;-62
2022/03/19 02:02:58;;;;;;;;;3.00;3.00;;;;;;;;5058769;27;51148;-62
2022/03/19 02:05:24;;;;;;;;;6.50;4.00;;;;;;;;5061753;28;52616;-62
2022/03/19 02:07:50;;;;;;;;;3.25;3.25;;;;;;;;5058246;27;52333;-62
2022/03/19 02:10:16;;;;;;;;;2.75;2.50;;;;;;;;5059366;28;51162;-61
2022/03/19 02:12:41;;;;;;;;;4.50;4.00;;;;;;;;5058600;28;51314;-61
2022/03/19 02:15:08;;;;;;;;;5.25;5.25;;;;;;;;5058723;27;51104;-61
2022/03/19 02:17:33;;;;;;;;;1.50;0.25;;;;;;;;5059491;27;54071;-61
2022/03/19 02:20:00;;;;;;;;;5.25;4.25;;;;;;;;5056747;28;51099;-61
2022/03/19 02:22:26;;;;;;;;;6.00;6.00;;;;;;;;5061059;28;51216;-61
2022/03/19 02:27:36;;;;;;;;;4.25;4.00;;;;;;;;5061813;27;51473;-61
2022/03/19 02:30:03;;;;;;;;;6.75;4.00;;;;;;;;5060044;27;51477;-61
2022/03/19 02:32:28;;;;;;;;;4.00;4.00;;;;;;;;5069693;28;51063;-61
2022/03/19 02:34:54;;;;;;;;;6.25;5.50;;;;;;;;5066251;28;51332;-61
2022/03/19 02:37:19;;;;;;;;;5.75;5.75;;;;;;;;5070391;27;51096;-61
2022/03/19 02:39:44;;;;;;;;;3.00;3.00;;;;;;;;5056700;28;51018;-61
2022/03/19 02:42:10;;;;;;;;;5.00;5.00;;;;;;;;5062104;27;51167;-61
2022/03/19 02:44:35;;;;;;;;;10.25;7.50;;;;;;;;5065891;27;51015;-62
2022/03/19 02:47:02;;;;;;;;;6.00;4.00;;;;;;;;5072115;27;51285;-61
2022/03/19 02:49:27;;;;;;;;;7.25;6.75;;;;;;;;5066819;27;50894;-60
2022/03/19 02:51:53;;;;;;;;;6.00;6.00;;;;;;;;5070443;28;51165;-61
2022/03/19 02:54:20;;;;;;;;;5.50;5.50;;;;;;;;5071345;27;50933;-61
2022/03/19 02:56:46;;;;;;;;;2.25;2.00;;;;;;;;5064285;27;50976;-61
2022/03/19 02:59:13;;;;;;;;;8.00;7.75;;;;;;;;5067457;27;51073;-61
2022/03/19 03:01:41;;;;;;;;;8.50;7.50;;;;;;;;5068724;28;51250;-61
2022/03/19 03:04:07;;;;;;;;;6.75;6.00;;;;;;;;5063371;27;51115;-62
2022/03/19 03:06:35;;;;;;;;;8.00;8.00;;;;;;;;5069051;28;51997;-62
2022/03/19 03:09:01;;;;;;;;;8.50;7.25;;;;;;;;5065336;27;51485;-62
2022/03/19 03:11:26;;;;;;;;;7.75;7.25;;;;;;;;5066365;28;51073;-62
2022/03/19 03:13:51;;;;;;;;;8.25;8.25;;;;;;;;5063527;27;51113;-62
2022/03/19 03:16:17;;;;;;;;;7.25;7.00;;;;;;;;5063733;28;52006;-61
2022/03/19 03:18:42;;;;;;;;;7.25;6.00;;;;;;;;5064676;27;52047;-61
2022/03/19 03:21:07;;;;;;;;;6.00;4.50;;;;;;;;5064901;27;51236;-61
2022/03/19 03:23:33;;;;;;;;;6.75;6.00;;;;;;;;5068132;27;51335;-61
2022/03/19 03:25:58;;;;;;;;;7.50;7.50;;;;;;;;5060766;28;54384;-61
2022/03/19 03:28:24;;;;;;;;;7.25;7.25;;;;;;;;5063732;28;52445;-62
2022/03/19 03:30:49;;;;;;;;;6.00;5.50;;;;;;;;5065876;28;50899;-60
2022/03/19 03:33:14;;;;;;;;;11.25;8.75;;;;;;;;5060246;28;51051;-61
2022/03/19 03:35:41;;;;;;;;;4.00;4.00;;;;;;;;5058770;28;51758;-61
2022/03/19 03:38:06;;;;;;;;;7.25;6.25;;;;;;;;5068342;27;51104;-62
2022/03/19 03:40:32;;;;;;;;;8.75;6.00;;;;;;;;5058652;28;51134;-61
2022/03/19 03:42:57;;;;;;;;;10.25;8.75;;;;;;;;5062297;28;51250;-62
2022/03/19 03:45:23;;;;;;;;;6.75;6.75;;;;;;;;5064793;27;51875;-61
2022/03/19 03:47:49;;;;;;;;;7.25;6.00;;;;;;;;5073778;28;50903;-61
2022/03/19 03:50:15;;;;;;;;;8.00;7.50;;;;;;;;5074048;27;51300;-61
2022/03/19 03:52:40;;;;;;;;;10.25;9.00;;;;;;;;5062706;27;51176;-61
2022/03/19 03:55:07;;;;;;;;;6.50;6.50;;;;;;;;5068534;27;52040;-61
2022/03/19 03:57:34;;;;;;;;;9.00;8.00;;;;;;;;5073650;28;51229;-61
2022/03/19 04:00:00;;;;;;;;;8.00;8.00;;;;;;;;5062051;27;51094;-61
2022/03/19 04:02:25;;;;;;;;;9.00;9.00;;;;;;;;5071083;27;51313;-61
2022/03/19 04:04:50;;;;;;;;;7.50;6.50;;;;;;;;5072719;28;51844;-61
2022/03/19 04:07:15;;;;;;;;;12.50;11.50;;;;;;;;5068076;27;51171;-62
2022/03/19 04:09:41;;;;;;;;;6.50;6.50;;;;;;;;5064938;27;51107;-60
2022/03/19 04:12:06;;;;;;;;;10.00;7.50;;;;;;;;5069218;28;52885;-61
2022/03/19 04:14:31;;;;;;;;;11.75;11.00;;;;;;;;5066354;27;51350;-61
2022/03/19 04:16:56;;;;;;;;;10.50;8.00;;;;;;;;5062857;28;50980;-61
2022/03/19 04:19:22;;;;;;;;;13.25;12.00;;;;;;;;5068445;27;51048;-61
2022/03/19 04:21:47;;;;;;;;;13.25;11.00;;;;;;;;5070799;27;50881;-61
2022/03/19 04:24:12;;;;;;;;;13.00;11.75;;;;;;;;5072965;28;51919;-61
2022/03/19 04:26:37;;;;;;;;;11.75;9.00;;;;;;;;5069533;27;50922;-61
2022/03/19 04:29:03;;;;;;;;;8.00;6.50;;;;;;;;5055053;28;51072;-61
2022/03/19 04:31:28;;;;;;;;;13.25;13.00;;;;;;;;5070750;27;50956;-61
2022/03/19 04:33:53;;;;;;;;;15.75;13.00;;;;;;;;5063440;27;51395;-61
2022/03/19 04:36:30;;;;;;;;;17.50;14.25;;;;;;;;5069256;28;51371;-61
2022/03/19 04:38:59;;;;;;;;;14.25;11.25;;;;;;;;5069699;27;51187;-62
2022/03/19 04:41:25;;;;;;;;;10.75;10.75;;;;;;;;5060189;27;50929;-61
2022/03/19 04:43:52;;;;;;;;;9.75;9.50;;;;;;;;5058573;27;51903;-61
2022/03/19 04:46:18;;;;;;;;;15.75;14.50;;;;;;;;5068131;27;51037;-61
2022/03/19 04:48:45;;;;;;;;;13.25;13.00;;;;;;;;5061605;27;51124;-61
2022/03/19 04:51:15;;;;;;;;;15.00;13.50;;;;;;;;5069380;28;51288;-61
2022/03/19 04:53:40;;;;;;;;;14.25;13.00;;;;;;;;5064294;28;53188;-61
2022/03/19 04:56:06;;;;;;;;;13.50;12.25;;;;;;;;5073141;27;51025;-60
2022/03/19 04:58:32;;;;;;;;;22.75;19.00;;;;;;;;5070573;27;51052;-60
2022/03/19 05:00:57;;;;;;;;;14.75;13.50;;;;;;;;5065138;27;50896;-61
2022/03/19 05:03:22;;;;;;;;;16.75;15.25;;;;;;;;5069230;28;51027;-61
2022/03/19 05:05:47;;;;;;;;;19.25;17.00;;;;;;;;5065892;27;51359;-61
2022/03/19 05:08:13;;;;;;;;;18.75;18.50;;;;;;;;5068508;28;50961;-61
2022/03/19 05:13:22;;;;;;;;;17.00;17.00;;;;;;;;5055894;27;50957;-61
2022/03/19 05:15:47;;;;;;;;;23.25;17.75;;;;;;;;5060679;27;50919;-61
2022/03/19 05:18:12;;;;;;;;;11.00;7.00;;;;;;;;5067505;28;51308;-61
2022/03/19 05:20:37;;;;;;;;;21.50;19.25;;;;;;;;5060700;28;51316;-61
2022/03/19 05:23:09;;;;;;;;;11.75;6.75;;;;;;;;5059804;27;52045;-61
2022/03/19 05:25:34;;;;;;;;;20.75;20.50;;;;;;;;5060339;27;51107;-61
2022/03/19 05:27:59;;;;;;;;;18.50;17.00;;;;;;;;5070043;28;51298;-61
2022/03/19 05:30:24;;;;;;;;;23.50;21.25;;;;;;;;5066123;27;50847;-61
2022/03/19 05:32:50;;;;;;;;;23.75;22.50;;;;;;;;5069334;28;52236;-61
2022/03/19 05:35:16;;;;;;;;;21.75;18.25;;;;;;;;5059643;27;51103;-61
2022/03/19 05:37:41;;;;;;;;;27.25;23.00;;;;;;;;5071471;28;51107;-61
2022/03/19 05:40:07;;;;;;;;;24.25;21.75;;;;;;;;5057246;28;50810;-61
2022/03/19 05:42:32;;;;;;;;;26.75;22.75;;;;;;;;5057512;27;51085;-61
2022/03/19 05:44:58;;;;;;;;;25.00;22.00;;;;;;;;5057407;27;51076;-61
2022/03/19 05:47:23;;;;;;;;;22.25;18.75;;;;;;;;5069691;27;51049;-61
2022/03/19 05:49:48;;;;;;;;;20.25;18.50;;;;;;;;5062429;27;51328;-62
2022/03/19 05:52:13;;;;;;;;;26.75;24.50;;;;;;;;5058635;27;51769;-61
2022/03/19 05:54:39;;;;;;;;;22.75;19.50;;;;;;;;5067451;27;51171;-61
2022/03/19 05:57:04;;;;;;;;;23.00;21.50;;;;;;;;5061181;28;51040;-61
2022/03/19 05:59:29;;;;;;;;;28.25;21.75;;;;;;;;5070381;27;51081;-61
2022/03/19 06:01:55;;;;;;;;;24.75;23.50;;;;;;;;5070569;27;51978;-61
2022/03/19 06:04:20;;;;;;;;;20.00;19.25;;;;;;;;5070309;27;51115;-62
2022/03/19 06:06:45;;;;;;;;;30.75;25.75;;;;;;;;5064883;27;51112;-61
2022/03/19 06:09:11;;;;;;;;;30.50;26.50;;;;;;;;5062095;27;50969;-61
2022/03/19 06:11:38;;;;;;;;;24.00;18.25;;;;;;;;5069225;27;51916;-61
2022/03/19 06:14:03;;;;;;;;;32.00;29.75;;;;;;;;5070904;27;51147;-62
2022/03/19 06:16:28;;;;;;;;;31.75;28.75;;;;;;;;5070188;27;51073;-62
2022/03/19 06:18:54;;;;;;;;;31.50;28.50;;;;;;;;5070814;27;50887;-62
2022/03/19 06:21:20;;;;;;;;;25.25;20.75;;;;;;;;5065901;27;51344;-62
2022/03/19 06:23:45;;;;;;;;;30.75;27.75;;;;;;;;5078910;27;50893;-62
2022/03/19 06:26:11;;;;;;;;;29.75;25.75;;;;;;;;5066726;28;51129;-62
2022/03/19 06:28:36;;;;;;;;;29.25;28.00;;;;;;;;5063169;27;51863;-62
2022/03/19 06:31:01;;;;;;;;;33.25;30.50;;;;;;;;5057344;28;52159;-62
2022/03/19 06:33:26;;;;;;;;;32.50;29.75;;;;;;;;5065697;27;50989;-62
2022/03/19 06:38:36;;;;;;;;;33.25;31.25;;;;;;;;5057416;27;50895;-60
2022/03/19 06:41:01;;;;;;;;;38.75;34.75;;;;;;;;5069912;28;51156;-60
2022/03/19 06:43:26;;;;;;;;;35.75;31.25;;;;;;;;5068032;27;51171;-61
2022/03/19 06:45:54;;;;;;;;;31.50;29.25;;;;;;;;5065709;27;50862;-60
2022/03/19 06:48:20;;;;;;;;;32.75;29.50;;;;;;;;5054651;28;51135;-60
2022/03/19 06:50:45;;;;;;;;;37.75;36.25;;;;;;;;5069083;27;52249;-60
2022/03/19 06:53:10;;;;;;;;;27.25;24.75;;;;;;;;5063490;27;51111;-61
2022/03/19 06:55:35;;;;;;;;;20.75;18.00;;;;;;;;5066259;27;51011;-61
2022/03/19 06:58:00;;;;;;;;;35.75;31.50;;;;;;;;5061616;27;51327;-61
2022/03/19 07:00:26;;;;;;;;;46.50;40.00;;;;;;;;5061037;27;52160;-60
2022/03/19 07:02:52;;;;;;;;;45.25;38.75;;;;;;;;5065089;27;51754;-60
2022/03/19 07:05:22;;;;;;;;;38.00;34.00;;;;;;;;5063028;27;51037;-61
2022/03/19 07:07:48;;;;;;;;;43.00;38.75;;;;;;;;5059021;27;50874;-61
2022/03/19 07:10:15;;;;;;;;;43.00;38.50;;;;;;;;5070682;27;50979;-61
2022/03/19 07:12:42;;;;;;;;;46.25;36.25;;;;;;;;5060917;27;51207;-61
2022/03/19 07:15:08;;;;;;;;;51.25;41.25;;;;;;;;5063929;27;51152;-60
2022/03/19 07:17:33;;;;;;;;;44.25;39.25;;;;;;;;5061439;27;51191;-61
2022/03/19 07:19:58;;;;;;;;;46.50;39.50;;;;;;;;5067461;27;52118;-61
2022/03/19 07:22:23;;;;;;;;;42.50;37.75;;;;;;;;5067439;27;51269;-62
2022/03/19 07:24:49;;;;;;;;;44.75;39.00;;;;;;;;5067570;27;51167;-61
2022/03/19 07:27:14;;;;;;;;;46.00;39.75;;;;;;;;5074628;27;51383;-62
2022/03/19 07:29:39;;;;;;;;;44.50;38.00;;;;;;;;5070151;27;51004;-61
2022/03/19 07:32:04;;;;;;;;;49.00;41.25;;;;;;;;5068220;27;51062;-62
2022/03/19 07:34:30;;;;;;;;;44.00;38.75;;;;;;;;5070453;27;51056;-63
2022/03/19 07:36:55;;;;;;;;;50.00;40.75;;;;;;;;5074032;27;51359;-63
2022/03/19 07:39:20;;;;;;;;;42.00;36.00;;;;;;;;5064327;27;51044;-62
2022/03/19 07:41:48;;;;;;;;;50.25;39.50;;;;;;;;5065244;27;52608;-60
2022/03/19 07:44:13;;;;;;;;;46.25;39.50;;;;;;;;5065933;28;51113;-61
2022/03/19 07:46:41;;;;;;;;;52.00;42.75;;;;;;;;5066997;27;51306;-61
2022/03/19 07:49:07;;;;;;;;;48.00;41.00;;;;;;;;5057534;27;52044;-61
2022/03/19 07:51:32;;;;;;;;;52.25;43.00;;;;;;;;5062705;27;51066;-60
2022/03/19 07:53:57;;;;;;;;;53.25;42.00;;;;;;;;5067612;27;52069;-61
2022/03/19 07:56:24;;;;;;;;;53.50;44.00;;;;;;;;5070138;27;51024;-61
2022/03/19 07:58:50;;;;;;;;;47.00;40.00;;;;;;;;5069018;27;51217;-62
2022/03/19 08:01:19;;;;;;;;;48.50;41.50;;;;;;;;5072074;27;50991;-62
2022/03/19 08:03:45;;;;;;;;;52.25;44.00;;;;;;;;5066924;27;51153;-62
2022/03/19 08:06:10;;;;;;;;;54.50;44.75;;;;;;;;5074135;28;51321;-63
2022/03/19 08:08:37;;;;;;;;;52.25;44.25;;;;;;;;5067047;27;51756;-63
2022/03/19 08:11:02;;;;;;;;;52.75;43.25;;;;;;;;5065527;27;50949;-62
2022/03/19 08:13:28;;;;;;;;;54.25;45.25;;;;;;;;5067964;27;51032;-63
2022/03/19 08:15:53;;;;;;;;;52.25;42.75;;;;;;;;5062941;27;51105;-62
2022/03/19 08:18:18;;;;;;;;;46.25;37.00;;;;;;;;5066774;27;51207;-63
2022/03/19 08:20:46;;;;;;;;;54.00;43.50;;;;;;;;5069864;27;51210;-64
2022/03/19 08:23:12;;;;;;;;;56.00;44.75;;;;;;;;5072062;27;51085;-67
2022/03/19 08:25:38;;;;;;;;;56.50;44.50;;;;;;;;5062109;28;51250;-64
2022/03/19 08:28:03;;;;;;;;;51.50;42.00;;;;;;;;5069655;27;52016;-63
2022/03/19 08:30:28;;;;;;;;;56.50;45.75;;;;;;;;5055853;27;51121;-64
2022/03/19 08:32:54;;;;;;;;;53.50;44.50;;;;;;;;5060724;27;51206;-65
2022/03/19 08:35:19;;;;;;;;;54.75;42.75;;;;;;;;5068550;27;51544;-64
2022/03/19 08:37:45;;;;;;;;;56.25;44.75;;;;;;;;5065212;27;51990;-62
2022/03/19 08:40:16;;;;;;;;;54.75;45.00;;;;;;;;5065880;27;51061;-64
2022/03/19 08:42:52;;;;;;;;;49.50;39.75;;;;;;;;5063760;27;51166;-62
2022/03/19 08:45:21;;;;;;;;;54.00;45.50;;;;;;;;5063362;27;51271;-61
2022/03/19 08:47:46;;;;;;;;;52.25;43.75;;;;;;;;5063309;28;51998;-64
2022/03/19 08:50:11;;;;;;;;;52.00;43.00;;;;;;;;5064783;27;51092;-63
2022/03/19 08:52:37;;;;;;;;;56.75;46.75;;;;;;;;5069529;28;51271;-63
2022/03/19 08:55:03;;;;;;;;;54.75;43.75;;;;;;;;5059562;28;51327;-63
2022/03/19 08:57:29;;;;;;;;;60.25;47.00;;;;;;;;5062721;28;52372;-61
2022/03/19 08:59:54;;;;;;;;;52.25;43.25;;;;;;;;5067662;27;50987;-62
2022/03/19 09:02:19;;;;;;;;;55.00;44.75;;;;;;;;5065545;27;51801;-62
2022/03/19 09:04:45;;;;;;;;;51.50;41.75;;;;;;;;5065245;27;51279;-62
2022/03/19 09:07:12;;;;;;;;;56.00;45.25;;;;;;;;5063238;27;52135;-61
2022/03/19 09:09:38;;;;;;;;;46.00;38.25;;;;;;;;5071054;27;50956;-62
2022/03/19 09:12:03;;;;;;;;;55.25;45.00;;;;;;;;5069774;27;51168;-61
2022/03/19 09:14:28;;;;;;;;;53.00;44.50;;;;;;;;5063619;27;51236;-62
2022/03/19 09:16:54;;;;;;;;;50.50;40.00;;;;;;;;5070742;27;51336;-61
2022/03/19 09:19:19;;;;;;;;;58.00;41.75;;;;;;;;5071915;28;51048;-62
2022/03/19 09:21:44;;;;;;;;;58.25;46.00;;;;;;;;5073107;28;51147;-62
2022/03/19 09:24:10;;;;;;;;;46.75;40.50;;;;;;;;5070105;27;50964;-63
2022/03/19 09:26:35;;;;;;;;;51.75;43.75;;;;;;;;5063951;28;51214;-63
2022/03/19 09:29:01;;;;;;;;;59.25;47.50;;;;;;;;5060914;27;51198;-63
2022/03/19 09:31:27;;;;;;;;;50.50;43.00;;;;;;;;5071038;27;51344;-63
2022/03/19 09:33:52;;;;;;;;;57.00;46.00;;;;;;;;5062890;27;51058;-63
2022/03/19 09:36:18;;;;;;;;;48.75;40.75;;;;;;;;5061133;27;51168;-63
2022/03/19 09:38:43;;;;;;;;;58.00;46.75;;;;;;;;5067910;27;50988;-63
2022/03/19 09:41:08;;;;;;;;;56.50;46.50;;;;;;;;5063192;27;51098;-62
2022/03/19 09:43:34;;;;;;;;;39.50;35.25;;;;;;;;5062977;28;51252;-62
2022/03/19 09:45:59;;;;;;;;;54.00;43.75;;;;;;;;5068781;27;50984;-63
2022/03/19 09:48:25;;;;;;;;;54.50;45.00;;;;;;;;5059375;27;50903;-63
2022/03/19 09:50:50;;;;;;;;;46.25;38.50;;;;;;;;5067893;28;51149;-63
2022/03/19 09:53:17;;;;;;;;;53.25;44.00;;;;;;;;5070529;28;51357;-63
2022/03/19 09:55:42;;;;;;;;;60.00;47.75;;;;;;;;5069926;27;52719;-64
2022/03/19 09:58:09;;;;;;;;;53.00;44.00;;;;;;;;5067015;28;50998;-63
2022/03/19 10:00:36;;;;;;;;;51.00;42.00;;;;;;;;5062501;27;50960;-63
2022/03/19 10:03:02;;;;;;;;;54.50;46.25;;;;;;;;5072395;28;51072;-63
2022/03/19 10:10:59;;;;;;;;;56.50;45.00;;;;;;;;5072607;28;50877;-63
2022/03/19 10:13:25;;;;;;;;;49.75;41.75;;;;;;;;5072380;27;50881;-63
2022/03/19 10:15:50;;;;;;;;;40.75;33.25;;;;;;;;5066025;27;51109;-63
2022/03/19 10:18:16;;;;;;;;;46.75;39.50;;;;;;;;5081388;27;50952;-63
2022/03/19 10:20:42;;;;;;;;;53.25;44.00;;;;;;;;5074042;27;50894;-63
2022/03/19 10:23:07;;;;;;;;;48.25;39.50;;;;;;;;5061256;27;50814;-62
2022/03/19 10:25:32;;;;;;;;;44.25;36.00;;;;;;;;5069770;28;52231;-63
2022/03/19 10:28:02;;;;;;;;;51.25;41.50;;;;;;;;5067316;28;50878;-62
2022/03/19 10:30:34;;;;;;;;;52.75;43.00;;;;;;;;5071395;27;51088;-62
2022/03/19 10:33:00;;;;;;;;;50.00;41.75;;;;;;;;5067470;27;51228;-62
2022/03/19 10:35:29;;;;;;;;;53.50;44.25;;;;;;;;5065542;27;52222;-63
2022/03/19 10:37:55;;;;;;;;;51.75;43.50;;;;;;;;5058844;28;50906;-64
2022/03/19 10:40:20;;;;;;;;;54.00;44.00;;;;;;;;5061823;27;51005;-62
2022/03/19 10:42:46;;;;;;;;;53.25;43.50;;;;;;;;5070005;28;51496;-63
2022/03/19 10:45:18;;;;;;;;;45.00;37.75;;;;;;;;5058347;27;52026;-63
2022/03/19 10:47:45;;;;;;;;;54.50;45.25;;;;;;;;5064102;28;51040;-62
2022/03/19 10:50:23;;;;;;;;;51.25;41.00;;;;;;;;5057118;27;51108;-62
2022/03/19 10:52:49;;;;;;;;;54.75;45.25;;;;;;;;5061515;28;51223;-63
2022/03/19 10:55:14;;;;;;;;;48.00;40.50;;;;;;;;5068168;27;52838;-63
2022/03/19 10:57:41;;;;;;;;;51.25;43.00;;;;;;;;5065548;27;51162;-62
2022/03/19 11:00:07;;;;;;;;;52.75;42.75;;;;;;;;5063305;27;51309;-63
2022/03/19 11:02:32;;;;;;;;;55.00;44.25;;;;;;;;5075630;27;51099;-62
2022/03/19 11:04:58;;;;;;;;;42.25;35.50;;;;;;;;5066974;27;51725;-64
2022/03/19 11:07:24;;;;;;;;;57.25;44.00;;;;;;;;5063655;27;51640;-62
2022/03/19 11:09:51;;;;;;;;;40.75;35.75;;;;;;;;5069013;28;51011;-62
2022/03/19 11:12:20;;;;;;;;;46.75;39.50;;;;;;;;5064175;28;51032;-63
2022/03/19 11:14:45;;;;;;;;;47.00;39.50;;;;;;;;5068446;27;51933;-62
2022/03/19 11:17:24;;;;;;;;;51.00;41.25;;;;;;;;5065869;27;50945;-62
2022/03/19 11:19:54;;;;;;;;;47.75;37.25;;;;;;;;5070584;27;51085;-62
2022/03/19 11:22:19;;;;;;;;;52.25;42.50;;;;;;;;5064933;27;51194;-63
2022/03/19 11:24:48;;;;;;;;;45.75;38.50;;;;;;;;5074412;27;51896;-63
2022/03/19 11:27:15;;;;;;;;;52.50;43.25;;;;;;;;5064980;28;51171;-62
2022/03/19 11:29:40;;;;;;;;;50.25;40.50;;;;;;;;5074415;27;51290;-63
2022/03/19 11:32:06;;;;;;;;;48.50;39.75;;;;;;;;5074601;27;51152;-63
2022/03/19 11:34:44;;;;;;;;;47.75;40.50;;;;;;;;5074299;28;51075;-64
2022/03/19 11:37:10;;;;;;;;;46.25;38.75;;;;;;;;5073962;27;51027;-62
2022/03/19 11:39:35;;;;;;;;;49.75;42.25;;;;;;;;5069578;27;51144;-63
2022/03/19 11:42:00;;;;;;;;;43.25;36.00;;;;;;;;5074085;27;51234;-63
2022/03/19 11:44:27;;;;;;;;;52.25;44.00;;;;;;;;5076743;27;52064;-62
2022/03/19 11:46:59;;;;;;;;;43.75;36.00;;;;;;;;5073759;28;51063;-62
2022/03/19 11:49:43;;;;;;;;;44.50;37.00;;;;;;;;5076200;27;50973;-78
2022/03/19 11:52:08;;;;;;;;;51.25;43.00;;;;;;;;5071576;27;51112;-72
2022/03/19 11:54:54;;;;;;;;;50.50;41.75;;;;;;;;5067291;27;51394;-70
2022/03/19 11:57:20;;;;;;;;;49.00;41.00;;;;;;;;5061488;28;51064;-72
2022/03/19 11:59:46;;;;;;;;;41.75;35.75;;;;;;;;5071552;28;51114;-73
2022/03/19 12:02:14;;;;;;;;;48.75;40.50;;;;;;;;5075483;28;51174;-68
2022/03/19 12:04:45;;;;;;;;;53.75;44.00;;;;;;;;5069811;28;52415;-63
2022/03/19 12:07:10;;;;;;;;;46.75;38.25;;;;;;;;5073661;27;50952;-63
2022/03/19 12:09:38;;;;;;;;;37.00;32.00;;;;;;;;5069630;27;51158;-63
2022/03/19 12:12:15;;;;;;;;;51.00;42.50;;;;;;;;5070930;27;51084;-64
2022/03/19 12:14:40;;;;;;;;;58.25;45.50;;;;;;;;5073563;27;50978;-62
2022/03/19 12:17:16;;;;;;;;;47.00;39.50;;;;;;;;5070228;28;50978;-62
2022/03/19 12:20:01;;;;;;;;;50.50;41.00;;;;;;;;5070692;28;50980;-64
2022/03/19 12:22:27;;;;;;;;;50.50;40.50;;;;;;;;5065792;27;51370;-62
2022/03/19 12:24:56;;;;;;;;;50.50;42.00;;;;;;;;5067084;28;52720;-61
2022/03/19 12:27:21;;;;;;;;;48.00;39.25;;;;;;;;5069529;28;51032;-63
2022/03/19 12:29:46;;;;;;;;;45.25;38.25;;;;;;;;5066550;27;51155;-63
2022/03/19 12:32:12;;;;;;;;;53.00;42.25;;;;;;;;5073109;27;51120;-63
2022/03/19 12:34:39;;;;;;;;;50.75;43.00;;;;;;;;5072985;27;52483;-63
2022/03/19 12:37:04;;;;;;;;;49.50;40.75;;;;;;;;5072042;27;51055;-63
2022/03/19 12:39:29;;;;;;;;;43.75;36.50;;;;;;;;5073606;28;50920;-62
2022/03/19 12:41:55;;;;;;;;;51.75;41.75;;;;;;;;5073287;27;51154;-63
2022/03/19 12:44:24;;;;;;;;;50.00;40.75;;;;;;;;5072534;28;51199;-62
2022/03/19 12:46:56;;;;;;;;;50.50;41.75;;;;;;;;5070159;27;51131;-64
2022/03/19 12:49:21;;;;;;;;;45.75;37.00;;;;;;;;5073458;27;51052;-62
2022/03/19 12:51:47;;;;;;;;;49.75;41.00;;;;;;;;5073395;27;51078;-61
2022/03/19 12:54:27;;;;;;;;;49.00;40.75;;;;;;;;5071479;28;52891;-61
2022/03/19 12:56:53;;;;;;;;;46.50;39.25;;;;;;;;5071339;28;51075;-62
2022/03/19 12:59:20;;;;;;;;;50.75;42.25;;;;;;;;5071811;28;51176;-61
2022/03/19 13:01:46;;;;;;;;;51.25;43.50;;;;;;;;5073254;27;51289;-63
2022/03/19 13:04:17;;;;;;;;;55.00;44.50;;;;;;;;5069428;27;51098;-63
2022/03/19 13:06:43;;;;;;;;;50.75;42.50;;;;;;;;5071831;28;51021;-61
2022/03/19 13:09:08;;;;;;;;;51.75;41.25;;;;;;;;5070934;28;51072;-62
2022/03/19 13:11:44;;;;;;;;;50.75;41.00;;;;;;;;5071130;28;51379;-63
2022/03/19 13:14:12;;;;;;;;;53.00;42.75;;;;;;;;5072931;27;51056;-62
2022/03/19 13:16:38;;;;;;;;;52.75;42.75;;;;;;;;5072523;28;50836;-62
2022/03/19 13:19:04;;;;;;;;;56.75;45.50;;;;;;;;5065252;28;50870;-63
2022/03/19 13:21:30;;;;;;;;;46.75;39.00;;;;;;;;5072179;27;51019;-62
2022/03/19 13:24:00;;;;;;;;;52.25;41.50;;;;;;;;5066098;27;51024;-62
2022/03/19 13:26:29;;;;;;;;;49.50;40.50;;;;;;;;5072535;27;51171;-62
2022/03/19 13:29:02;;;;;;;;;56.00;45.50;;;;;;;;5072169;28;51000;-63
2022/03/19 13:31:27;;;;;;;;;40.00;35.50;;;;;;;;5070497;28;51327;-62
2022/03/19 13:33:58;;;;;;;;;53.50;43.75;;;;;;;;5071957;28;50982;-62
2022/03/19 13:36:25;;;;;;;;;55.00;44.25;;;;;;;;5071911;27;51241;-62
2022/03/19 13:38:53;;;;;;;;;54.00;44.00;;;;;;;;5071922;27;51009;-62
2022/03/19 13:41:19;;;;;;;;;48.00;40.75;;;;;;;;5066996;27;51138;-63
2022/03/19 13:43:44;;;;;;;;;44.50;36.00;;;;;;;;5071738;27;51345;-62
2022/03/19 13:46:14;;;;;;;;;56.00;45.25;;;;;;;;5070490;28;50988;-62
2022/03/19 13:48:39;;;;;;;;;53.25;44.25;;;;;;;;5071990;27;50913;-62
2022/03/19 13:51:05;;;;;;;;;52.25;43.50;;;;;;;;5070401;28;50930;-62
2022/03/19 13:53:41;;;;;;;;;47.50;39.25;;;;;;;;5071980;27;51207;-62
2022/03/19 13:56:06;;;;;;;;;51.00;42.00;;;;;;;;5070277;28;51115;-61
2022/03/19 13:58:34;;;;;;;;;56.25;45.25;;;;;;;;5066947;27;50964;-63
2022/03/19 14:01:09;;;;;;;;;56.50;45.25;;;;;;;;5069949;28;51444;-63
2022/03/19 14:03:40;;;;;;;;;53.75;44.00;;;;;;;;5070815;27;51173;-63
2022/03/19 14:06:05;;;;;;;;;52.75;41.50;;;;;;;;5071198;27;50862;-61
2022/03/19 14:08:30;;;;;;;;;55.00;44.50;;;;;;;;5070810;27;51158;-62
2022/03/19 14:10:56;;;;;;;;;49.50;40.00;;;;;;;;5071996;27;50894;-63
2022/03/19 14:13:24;;;;;;;;;54.75;43.25;;;;;;;;5071130;28;51129;-62
2022/03/19 14:15:54;;;;;;;;;54.50;44.50;;;;;;;;5071122;27;51096;-62
2022/03/19 14:18:31;;;;;;;;;55.50;44.50;;;;;;;;5066473;28;51018;-61
2022/03/19 14:21:01;;;;;;;;;54.75;44.75;;;;;;;;5069219;28;51000;-62
2022/03/19 14:23:27;;;;;;;;;51.25;42.00;;;;;;;;5070750;27;51185;-62
2022/03/19 14:25:53;;;;;;;;;51.50;41.00;;;;;;;;5071168;27;51080;-62
2022/03/19 14:28:19;;;;;;;;;47.25;40.00;;;;;;;;5070616;28;50954;-62
2022/03/19 14:30:45;;;;;;;;;46.00;37.50;;;;;;;;5065531;27;51239;-62
2022/03/19 14:33:10;;;;;;;;;49.25;40.25;;;;;;;;5067888;28;53130;-61